AirNav   Air Wisconsin pilot careers
 
 1376 users online  

23FL Gyro Town USA Airport
Wimauma, Florida, USA

GOING TO WIMAUMA?


FAA INFORMATION EFFECTIVE 07 DECEMBER 2017

Location

FAA Identifier: 23FL
Lat/Long: 27-41-04.0000N / 082-14-39.0000W
27-41.066667N / 082-14.650000W
27.6844444 / -82.2441667
(estimated)
Elevation: 65 ft. / 20 m (estimated)
From city: 5 miles W of WIMAUMA, FL
Time zone: UTC -5 (UTC -4 during Daylight Saving Time)
Zip code: 33547

Airport Operations

Airport use: Private use. Permission required prior to landing
Activation date: 03/2004
Control tower: no
ARTCC: MIAMI CENTER
FSS: SAINT PETERSBURG FLIGHT SERVICE STATION
Attendance: UNATNDD
Segmented circle: no

Airport Communications

WX AWOS-3 at TPF (18 nm NW): 118.925 (813-251-6824)
WX AWOS-3 at PCM (19 nm N): 120.025 (813-764-8259)

Nearby radio navigation aids

VOR radial/distance  VOR name  Freq  Var
LALr213/21.8LAKELAND VORTAC116.0001E
SRQr051/23.8SARASOTA VOR/DME117.0005W
PIEr125/26.9ST PETERSBURG VORTAC116.4005W

Airport Services

Runway Information

Runway 9/27

Dimensions: 2188 x 100 ft. / 667 x 30 m
Surface: turf
RUNWAY 9  RUNWAY 27
Traffic pattern: leftleft

Airport Ownership and Management from official FAA records

Ownership: Privately-owned
Owner: ERNEST BOYETTE
19242 GRANGE HALL LP
WIMAUMA, FL 33598
Phone 813-634-3370
Manager: ERNEST BOYETTE
19242 GRANGE HALL LP
WIMAUMA, FL 33598
Phone 813-634-3370

Instrument Procedures

There are no published instrument procedures at 23FL.

Some nearby airports with instrument procedures:

KTPF - Peter O Knight Airport (18 nm NW)
KMCF - MacDill Air Force Base (18 nm NW)
KPCM - Plant City Airport (19 nm N)
KVDF - Tampa Executive Airport (20 nm N)
KSPG - Albert Whitted Airport (21 nm W)
 
Loc | Ops | Rwys | IFR | FBO | Links
Com | Nav | Svcs | Stats | Notes


 
Area around 23FL (Gyro Town USA Airport)
 
Road maps at: MapQuest Bing Google
 
Aerial photo
No photo
 
Sectional chart

 
Airport distance calculator
Flying to Gyro Town USA Airport? Find the distance to fly.

From to 23FL

Sunrise and sunset
Times for 18-Dec-2017
 Local
(UTC-5)
 Zulu
(UTC)
Morning civil twilight06:4911:49
Sunrise07:1512:15
Sunset17:3622:36
Evening civil twilight18:0223:02

Current date and time
Zulu (UTC)  18-Dec-2017 15:03:45
Local (UTC-5)  18-Dec-2017 10:03:45
 
METAR
KMCF 
18nm NW 
181456Z AUTO 20005KT 10SM CLR 21/19 A3025 RMK AO2 RAB1356 SLP247 P0000 60000 T02120187 52012 FZRANO $
KTPF 
18nm NW 
181455Z AUTO 10SM 21/21 A3026 RMK AO2
KPCM 
19nm N 
181455Z AUTO 20003KT 10SM CLR 24/20 A3027 RMK AO2
KVDF 
21nm N 
181455Z AUTO 00000KT 10SM CLR 23/19 A3026 RMK AO2
KLAL 
21nm NE 
181405Z 19003KT 7SM FEW010 18/18 A3024
KSPG 
21nm W 
181453Z 15004KT 7SM CLR 21/19 A3023 RMK AO2 SLP237 T02060194 53012
KTPA 
23nm NW 
181453Z 19005KT 10SM FEW200 24/19 A3025 RMK AO2 SLP244 T02390194 53014
KSRQ 
24nm SW 
181453Z 19007KT 10SM CLR 24/21 A3023 RMK AO2 SLP235 T02390206 51008
KPIE 
27nm NW 
181453Z 19004KT 10SM CLR 24/20 A3024 RMK AO2 SLP241 T02390200 52012
KBOW 
29nm NE 
181452Z 20005KT 10SM SKC 21/ A3026
TAF
KMCF 
18nm NW 
180900Z 1809/1915 15006KT 9999 SCT030 QNH3018INS BECMG 1904/1905 01004KT 3200 BR SCT040 QNH3022INS BECMG 1906/1907 VRB04KT 0800 FG FEW008 SCT030 QNH3023INS TX25/1820Z TN17/1811Z
KLAL 
21nm NE 
181354Z 1814/1912 VRB03KT P6SM FEW012 SCT250 TEMPO 1814/1815 4SM BR FM181600 27004KT P6SM SCT050 SCT250 FM190000 VRB03KT P6SM SCT250 FM190500 VRB03KT 3SM BR BKN010
NOTAMs
Click for the latest NOTAMs
NOTAMs are issued by the DoD/FAA and will open in a separate window not controlled by AirNav.

 

 
 

Would you like to see your business listed on this page?

 If your business provides an interesting product or service to pilots, flight crews, aircraft, or users of the Gyro Town USA Airport, you should consider listing it here.  To start the listing process, click on the button below
 
Add a business
 

Other Pages about Gyro Town USA Airport

Update a link
 
Copyright © AirNav, LLC. All rights reserved. Privacy Policy  Contact